Time;durP1;ratioP1;P1;durP2;ratioP2;P2;SDS_P1;SDS_P2;PMS_P1;PMS_P2;Temp;Humidity;BMP_temperature;BMP_pressure;BME280_temperature;BME280_humidity;BME280_pressure;Samples;Min_cycle;Max_cycle;Signal;HPM_P1;HPM_P2
2022/03/06 00:00:59;;;;;;;8.38;7.57;;;2.70;1.00;;;;;;6158105;23;20220;-85
2022/03/06 00:03:25;;;;;;;9.82;8.85;;;2.70;1.00;;;;;;6142938;23;20243;-86
2022/03/06 00:05:52;;;;;;;9.45;8.50;;;2.70;1.00;;;;;;6158083;23;20172;-86
2022/03/06 00:08:20;;;;;;;13.90;9.23;;;2.80;1.00;;;;;;6155867;23;20196;-86
2022/03/06 00:10:48;;;;;;;11.05;8.38;;;2.90;1.00;;;;;;6154317;23;20172;-84
2022/03/06 00:13:15;;;;;;;9.80;7.32;;;2.80;1.00;;;;;;6155874;23;20188;-86
2022/03/06 00:15:43;;;;;;;7.10;6.47;;;2.80;1.00;;;;;;6155156;23;20192;-86
2022/03/06 00:18:11;;;;;;;9.52;8.07;;;2.80;1.00;;;;;;6156725;23;20191;-87
2022/03/06 00:20:38;;;;;;;8.15;7.35;;;2.80;1.00;;;;;;6156153;23;20180;-86
2022/03/06 00:23:05;;;;;;;10.10;7.47;;;2.90;1.00;;;;;;6153734;23;20204;-85
2022/03/06 00:25:37;;;;;;;10.68;7.32;;;2.80;1.00;;;;;;6156714;23;20207;-86
2022/03/06 00:28:05;;;;;;;8.70;7.78;;;2.70;1.00;;;;;;6151820;23;20176;-86
2022/03/06 00:30:32;;;;;;;9.00;8.10;;;2.70;1.00;;;;;;6141979;23;20658;-86
2022/03/06 00:32:59;;;;;;;9.07;7.18;;;2.70;1.00;;;;;;6131217;23;20207;-85
2022/03/06 00:35:28;;;;;;;8.07;7.30;;;2.70;1.00;;;;;;6136750;23;20265;-86
2022/03/06 00:37:57;;;;;;;8.57;7.70;;;2.70;1.00;;;;;;6132431;23;20211;-85
2022/03/06 00:40:24;;;;;;;11.15;7.95;;;2.70;1.00;;;;;;6134199;23;20196;-84
2022/03/06 00:42:53;;;;;;;8.88;7.40;;;2.80;1.00;;;;;;6130252;23;20308;-85
2022/03/06 00:45:20;;;;;;;7.97;7.18;;;2.70;1.00;;;;;;6133423;23;20177;-86
2022/03/06 00:47:47;;;;;;;8.77;7.28;;;2.80;1.00;;;;;;6129429;23;20200;-85
2022/03/06 00:50:14;;;;;;;8.40;7.60;;;2.80;1.00;;;;;;6130603;23;20239;-85
2022/03/06 00:52:41;;;;;;;8.77;7.88;;;2.80;1.00;;;;;;6132610;23;20196;-85
2022/03/06 00:55:11;;;;;;;9.98;9.07;;;2.80;1.00;;;;;;6133260;23;20229;-85
2022/03/06 00:57:38;;;;;;;9.02;8.20;;;2.80;1.00;;;;;;6135277;23;20219;-85
2022/03/06 01:00:08;;;;;;;7.75;6.80;;;2.80;1.00;;;;;;6130445;23;20196;-85
2022/03/06 01:02:39;;;;;;;9.57;7.47;;;2.70;1.00;;;;;;6127883;23;20203;-86
2022/03/06 01:05:07;;;;;;;7.38;6.45;;;2.80;1.00;;;;;;6131816;23;20222;-85
2022/03/06 01:07:34;;;;;;;7.72;7.03;;;2.80;1.00;;;;;;6127415;23;20202;-84
2022/03/06 01:10:02;;;;;;;8.25;7.07;;;2.90;1.00;;;;;;6128535;23;20180;-84
2022/03/06 01:12:29;;;;;;;8.02;7.22;;;2.90;1.00;;;;;;6129036;23;21649;-84
2022/03/06 01:14:58;;;;;;;8.27;7.38;;;2.80;1.00;;;;;;6128868;23;20203;-85
2022/03/06 01:17:27;;;;;;;9.88;7.43;;;2.80;1.00;;;;;;6131469;23;20206;-84
2022/03/06 01:19:54;;;;;;;8.20;7.40;;;2.80;1.00;;;;;;6129299;23;20200;-85
2022/03/06 01:22:22;;;;;;;8.52;7.68;;;2.70;1.00;;;;;;6138777;23;20203;-85
2022/03/06 01:24:51;;;;;;;8.75;7.85;;;2.70;1.00;;;;;;6136022;23;20200;-83
2022/03/06 01:27:20;;;;;;;8.70;7.80;;;2.60;1.00;;;;;;6136067;23;20271;-85
2022/03/06 01:29:51;;;;;;;8.55;7.10;;;2.60;1.00;;;;;;6146147;23;20237;-86
2022/03/06 01:32:21;;;;;;;11.82;8.55;;;2.60;1.00;;;;;;6147752;23;20228;-84
2022/03/06 01:34:52;;;;;;;9.75;8.75;;;2.70;1.00;;;;;;6133193;23;20192;-83
2022/03/06 01:37:23;;;;;;;8.40;7.60;;;2.70;1.00;;;;;;6132225;23;20196;-84
2022/03/06 01:39:52;;;;;;;8.10;7.30;;;2.70;1.00;;;;;;6133153;23;20200;-83
2022/03/06 01:42:19;;;;;;;8.57;7.30;;;2.80;1.00;;;;;;6130912;23;20214;-85
2022/03/06 01:44:46;;;;;;;8.43;7.63;;;2.80;1.00;;;;;;6129471;23;20215;-85
2022/03/06 01:47:14;;;;;;;9.80;8.82;;;2.80;1.00;;;;;;6131598;23;20200;-85
2022/03/06 01:49:41;;;;;;;9.88;8.55;;;2.80;1.00;;;;;;6128592;23;20188;-84
2022/03/06 01:52:10;;;;;;;9.95;9.00;;;2.80;1.00;;;;;;6132226;23;20218;-84
2022/03/06 01:54:39;;;;;;;9.98;8.80;;;2.80;1.00;;;;;;6127348;23;20259;-83
2022/03/06 01:57:13;;;;;;;11.43;9.45;;;2.70;1.00;;;;;;6134181;23;20203;-84
2022/03/06 01:59:43;;;;;;;10.95;8.75;;;2.70;1.00;;;;;;6130405;23;20188;-84
2022/03/06 02:02:13;;;;;;;10.98;9.82;;;2.60;1.00;;;;;;6141374;23;20287;-85
2022/03/06 02:04:40;;;;;;;11.75;9.95;;;2.60;1.00;;;;;;6127878;23;20183;-86
2022/03/06 02:07:11;;;;;;;11.15;10.05;;;2.60;1.00;;;;;;6136618;23;20223;-83
2022/03/06 02:09:39;;;;;;;13.75;11.52;;;2.50;1.00;;;;;;6134060;23;20267;-83
2022/03/06 02:12:26;;;;;;;11.77;10.68;;;2.50;1.00;;;;;;6139969;23;20224;-83
2022/03/06 02:14:54;;;;;;;12.57;11.23;;;2.50;1.00;;;;;;6132392;23;20287;-85
2022/03/06 02:17:23;;;;;;;13.90;12.52;;;2.50;1.00;;;;;;6129804;23;21263;-85
2022/03/06 02:19:58;;;;;;;14.20;12.52;;;2.50;1.00;;;;;;6128763;23;20295;-84
2022/03/06 02:22:28;;;;;;;22.38;19.25;;;2.50;1.00;;;;;;6130495;23;20223;-85
2022/03/06 02:25:00;;;;;;;14.90;13.45;;;2.50;1.00;;;;;;6126071;23;20816;-85
2022/03/06 02:27:28;;;;;;;15.35;13.35;;;2.50;1.00;;;;;;6127073;23;20196;-85
2022/03/06 02:30:01;;;;;;;14.43;13.02;;;2.50;1.00;;;;;;6134478;23;20188;-82
2022/03/06 02:32:29;;;;;;;13.00;11.73;;;2.50;1.00;;;;;;6135850;23;20184;-84
2022/03/06 02:34:57;;;;;;;16.02;13.15;;;2.50;1.00;;;;;;6141174;23;20194;-86
2022/03/06 02:37:24;;;;;;;14.23;12.93;;;2.50;1.00;;;;;;6136238;23;20199;-84
2022/03/06 02:39:55;;;;;;;14.30;12.88;;;2.50;1.00;;;;;;6131816;23;20291;-84
2022/03/06 02:42:32;;;;;;;15.85;13.32;;;2.50;1.00;;;;;;6130152;23;20199;-84
2022/03/06 02:45:01;;;;;;;13.77;12.30;;;2.50;1.00;;;;;;6130557;23;20199;-84
2022/03/06 02:47:28;;;;;;;13.02;11.68;;;2.50;1.00;;;;;;6130238;23;20196;-84
2022/03/06 02:49:57;;;;;;;13.95;12.40;;;2.40;1.00;;;;;;6131232;23;20191;-83
2022/03/06 02:52:24;;;;;;;12.75;11.45;;;2.40;1.00;;;;;;6130971;23;20191;-85
2022/03/06 02:54:53;;;;;;;11.82;10.65;;;2.40;1.00;;;;;;6129554;23;20274;-83
2022/03/06 02:57:21;;;;;;;13.52;11.52;;;2.30;1.00;;;;;;6128999;23;20196;-85
2022/03/06 02:59:48;;;;;;;11.43;10.25;;;2.30;1.00;;;;;;6127572;23;20195;-84
2022/03/06 03:02:19;;;;;;;14.65;11.45;;;2.20;1.00;;;;;;6129082;23;20219;-84
2022/03/06 03:04:46;;;;;;;10.80;9.68;;;2.20;1.00;;;;;;6141933;23;20208;-85
2022/03/06 03:07:13;;;;;;;14.45;12.68;;;2.20;1.00;;;;;;6151802;23;20195;-85
2022/03/06 03:09:40;;;;;;;11.52;10.43;;;2.20;1.00;;;;;;6134017;23;20188;-84
2022/03/06 03:12:15;;;;;;;12.02;10.93;;;2.20;1.00;;;;;;6129158;23;20192;-84
2022/03/06 03:14:42;;;;;;;10.95;9.85;;;2.20;1.00;;;;;;6133098;23;20685;-85
2022/03/06 03:17:09;;;;;;;12.18;10.93;;;2.20;1.00;;;;;;6130153;23;20637;-85
2022/03/06 03:19:36;;;;;;;13.02;9.57;;;2.30;1.00;;;;;;6129476;23;20200;-82
2022/03/06 03:22:03;;;;;;;10.88;9.25;;;2.30;1.00;;;;;;6142332;23;20270;-83
2022/03/06 03:24:32;;;;;;;13.57;11.15;;;2.30;1.00;;;;;;6147338;23;20301;-83
2022/03/06 03:27:01;;;;;;;11.43;9.60;;;2.30;1.00;;;;;;6144013;23;20198;-85
2022/03/06 03:29:33;;;;;;;10.25;8.82;;;2.20;1.00;;;;;;6149063;23;20188;-84
2022/03/06 03:32:02;;;;;;;10.00;9.00;;;2.30;1.00;;;;;;6145301;23;20191;-85
2022/03/06 03:34:29;;;;;;;9.18;7.53;;;2.30;1.00;;;;;;6133826;23;20195;-85
2022/03/06 03:36:56;;;;;;;11.07;8.82;;;2.30;1.00;;;;;;6133586;23;20212;-84
2022/03/06 03:39:41;;;;;;;10.18;8.30;;;2.40;1.00;;;;;;6144561;23;20216;-84
2022/03/06 03:42:11;;;;;;;11.10;9.40;;;2.30;1.00;;;;;;6136782;23;20188;-85
2022/03/06 03:44:40;;;;;;;9.07;7.90;;;2.30;1.00;;;;;;6133147;23;20227;-83
2022/03/06 03:47:09;;;;;;;12.75;8.68;;;2.30;1.00;;;;;;6131346;23;20188;-84
2022/03/06 03:49:41;;;;;;;9.00;8.07;;;2.30;1.00;;;;;;6136614;23;20271;-84
2022/03/06 03:52:08;;;;;;;8.65;7.72;;;2.30;1.00;;;;;;6149617;23;20180;-86
2022/03/06 03:54:44;;;;;;;10.90;9.20;;;2.30;1.00;;;;;;6155304;23;20203;-85
2022/03/06 03:57:13;;;;;;;10.35;8.88;;;2.20;1.00;;;;;;6157693;23;20263;-85
2022/03/06 03:59:53;;;;;;;8.93;7.18;;;2.30;1.00;;;;;;6123732;23;20227;-86
2022/03/06 04:02:21;;;;;;;8.32;7.50;;;2.20;1.00;;;;;;6158062;23;20228;-85
2022/03/06 04:04:53;;;;;;;9.32;7.70;;;2.20;1.00;;;;;;6156822;23;20294;-83
2022/03/06 04:07:29;;;;;;;9.55;7.43;;;2.20;1.00;;;;;;6143928;23;20709;-83
2022/03/06 04:09:57;;;;;;;11.05;7.07;;;2.10;1.00;;;;;;6136682;23;20184;-84
2022/03/06 04:12:27;;;;;;;8.90;7.57;;;2.10;1.00;;;;;;6133742;23;20196;-82
2022/03/06 04:14:56;;;;;;;7.80;6.95;;;2.20;1.00;;;;;;6130806;23;20206;-84
2022/03/06 04:17:23;;;;;;;9.40;6.80;;;2.20;1.00;;;;;;6135518;23;20187;-85
2022/03/06 04:19:50;;;;;;;9.27;6.43;;;2.20;1.00;;;;;;6134083;23;20188;-85
2022/03/06 04:22:22;;;;;;;8.32;7.35;;;2.20;1.00;;;;;;6130081;23;20196;-85
2022/03/06 04:24:49;;;;;;;10.63;6.68;;;2.20;1.00;;;;;;6128276;23;20232;-84
2022/03/06 04:27:16;;;;;;;9.82;6.10;;;2.10;1.00;;;;;;6135947;23;21145;-84
2022/03/06 04:29:45;;;;;;;7.60;6.90;;;2.10;1.00;;;;;;6131361;23;20199;-84
2022/03/06 04:32:16;;;;;;;8.02;6.15;;;2.10;1.00;;;;;;6130556;23;20192;-83
2022/03/06 04:34:44;;;;;;;7.05;6.20;;;2.10;1.00;;;;;;6129304;23;20235;-83
2022/03/06 04:37:14;;;;;;;7.85;6.93;;;2.10;1.00;;;;;;6131671;23;20302;-85
2022/03/06 04:39:41;;;;;;;8.10;6.80;;;2.10;1.00;;;;;;6126327;23;20227;-84
2022/03/06 04:42:08;;;;;;;11.43;9.23;;;2.10;1.00;;;;;;6137350;23;20203;-84
2022/03/06 04:44:35;;;;;;;10.38;7.50;;;2.10;1.00;;;;;;6148876;23;20212;-83
2022/03/06 04:47:03;;;;;;;8.10;6.20;;;2.10;1.00;;;;;;6128911;23;20271;-84
2022/03/06 04:49:34;;;;;;;7.88;7.07;;;2.10;1.00;;;;;;6127201;23;20202;-84
2022/03/06 04:52:02;;;;;;;9.30;6.90;;;2.10;1.00;;;;;;6126610;23;20195;-83
2022/03/06 04:54:30;;;;;;;8.27;6.90;;;2.10;1.00;;;;;;6128178;23;20196;-85
2022/03/06 04:57:00;;;;;;;8.18;7.05;;;2.10;1.00;;;;;;6127805;23;20231;-85
2022/03/06 04:59:28;;;;;;;8.13;7.32;;;2.20;1.00;;;;;;6125182;23;20669;-84
2022/03/06 05:01:56;;;;;;;8.98;7.20;;;2.20;1.00;;;;;;6129229;23;20211;-84
2022/03/06 05:04:28;;;;;;;8.95;8.05;;;2.20;1.00;;;;;;6127320;23;20221;-83
2022/03/06 05:07:13;;;;;;;10.27;7.90;;;2.20;1.00;;;;;;6128199;23;20693;-83
2022/03/06 05:09:43;;;;;;;9.40;7.53;;;2.20;1.00;;;;;;6130305;23;21179;-83
2022/03/06 05:12:12;;;;;;;6.95;6.20;;;2.20;1.00;;;;;;6106085;23;20662;-85
2022/03/06 05:14:39;;;;;;;11.45;6.78;;;2.30;1.00;;;;;;6131180;23;20200;-82
2022/03/06 05:17:09;;;;;;;8.90;7.50;;;2.30;1.00;;;;;;6129253;23;20234;-82
2022/03/06 05:19:36;;;;;;;8.82;7.32;;;2.30;1.00;;;;;;6131304;23;20188;-83
2022/03/06 05:22:04;;;;;;;10.15;7.30;;;2.20;1.00;;;;;;6129175;23;20196;-84
2022/03/06 05:24:32;;;;;;;8.52;7.35;;;2.30;1.00;;;;;;6130987;23;20215;-83
2022/03/06 05:27:01;;;;;;;8.35;7.13;;;2.30;1.00;;;;;;6143250;23;20198;-85
2022/03/06 05:29:28;;;;;;;7.30;6.60;;;2.30;1.00;;;;;;6142593;23;20557;-85
2022/03/06 05:31:57;;;;;;;7.65;6.80;;;2.20;1.00;;;;;;6152639;23;20192;-85
2022/03/06 05:34:26;;;;;;;8.63;7.35;;;2.30;1.00;;;;;;6140370;23;20690;-84
2022/03/06 05:36:53;;;;;;;9.35;8.00;;;2.30;1.00;;;;;;6132392;23;20207;-84
2022/03/06 05:39:23;;;;;;;9.57;7.82;;;2.20;1.00;;;;;;6133402;23;20196;-84
2022/03/06 05:41:51;;;;;;;10.50;9.13;;;2.20;1.00;;;;;;6131214;23;20196;-84
2022/03/06 05:44:19;;;;;;;8.75;7.85;;;2.20;1.00;;;;;;6129725;23;20231;-84
2022/03/06 05:46:46;;;;;;;8.50;7.65;;;2.20;1.00;;;;;;6124983;23;20196;-84
2022/03/06 05:49:16;;;;;;;9.38;8.48;;;2.30;1.00;;;;;;6126223;23;20199;-82
2022/03/06 05:51:44;;;;;;;10.10;8.35;;;2.30;1.00;;;;;;6129155;23;20210;-83
2022/03/06 05:54:11;;;;;;;10.32;7.90;;;2.40;1.00;;;;;;6126592;23;20230;-83
2022/03/06 05:56:40;;;;;;;8.82;7.97;;;2.40;1.00;;;;;;6123606;23;20188;-84
2022/03/06 05:59:09;;;;;;;9.93;8.05;;;2.40;1.00;;;;;;6127353;23;20680;-84
2022/03/06 06:01:38;;;;;;;9.68;8.68;;;2.40;1.00;;;;;;6128520;23;20650;-84
2022/03/06 06:04:08;;;;;;;11.60;8.95;;;2.40;1.00;;;;;;6128440;23;21029;-83
2022/03/06 06:06:38;;;;;;;9.18;7.25;;;2.40;1.00;;;;;;6128871;23;20187;-82
2022/03/06 06:09:05;;;;;;;10.65;9.38;;;2.40;1.00;;;;;;6137624;23;20191;-83
2022/03/06 06:11:33;;;;;;;10.57;8.93;;;2.40;1.00;;;;;;6124305;23;20196;-83
2022/03/06 06:14:00;;;;;;;10.70;8.55;;;2.40;1.00;;;;;;6123450;23;20199;-83
2022/03/06 06:16:29;;;;;;;9.27;8.35;;;2.40;1.00;;;;;;6126766;23;20203;-83
2022/03/06 06:18:56;;;;;;;10.73;9.63;;;2.40;1.00;;;;;;6129875;23;20745;-83
2022/03/06 06:21:26;;;;;;;10.32;9.32;;;2.50;1.00;;;;;;6128489;23;20248;-85
2022/03/06 06:23:53;;;;;;;10.63;9.63;;;2.50;1.00;;;;;;6128990;23;20258;-84
2022/03/06 06:26:26;;;;;;;10.57;8.80;;;2.60;1.00;;;;;;6131251;23;20200;-86
2022/03/06 06:28:55;;;;;;;10.70;9.70;;;2.60;1.00;;;;;;6130918;23;20210;-82
2022/03/06 06:31:24;;;;;;;10.30;9.23;;;2.60;1.00;;;;;;6129423;23;20319;-84
2022/03/06 06:33:54;;;;;;;9.30;8.50;;;2.60;1.00;;;;;;6124929;23;20202;-85
2022/03/06 06:36:26;;;;;;;10.15;9.15;;;2.60;1.00;;;;;;6129067;23;20184;-83
2022/03/06 06:38:53;;;;;;;9.70;8.70;;;2.60;1.00;;;;;;6126396;23;20203;-83
2022/03/06 06:41:27;;;;;;;9.45;8.55;;;2.60;1.00;;;;;;6127385;23;20198;-84
2022/03/06 06:43:54;;;;;;;9.75;8.85;;;2.70;1.00;;;;;;6126600;23;20235;-83
2022/03/06 06:46:22;;;;;;;9.27;8.38;;;2.70;1.00;;;;;;6129965;23;20298;-83
2022/03/06 06:48:49;;;;;;;13.90;10.57;;;2.80;1.00;;;;;;6127682;23;21312;-83
2022/03/06 06:51:22;;;;;;;8.95;8.05;;;2.80;1.00;;;;;;6129402;23;20279;-85
2022/03/06 06:53:50;;;;;;;8.90;8.00;;;2.80;1.00;;;;;;6127396;23;20867;-82
2022/03/06 06:56:19;;;;;;;10.30;9.15;;;2.80;1.00;;;;;;6132337;23;20340;-82
2022/03/06 06:58:55;;;;;;;9.18;8.27;;;2.80;1.00;;;;;;6123183;23;20188;-82
2022/03/06 07:01:27;;;;;;;8.70;7.90;;;2.90;1.00;;;;;;6127048;23;20171;-84
2022/03/06 07:03:54;;;;;;;11.05;9.57;;;3.00;1.00;;;;;;6126416;23;20235;-83
2022/03/06 07:06:24;;;;;;;10.48;9.45;;;3.10;1.00;;;;;;6131021;23;20192;-83
2022/03/06 07:08:56;;;;;;;11.02;9.63;;;3.10;1.00;;;;;;6126471;23;20315;-83
2022/03/06 07:11:23;;;;;;;9.98;9.00;;;3.10;1.00;;;;;;6129460;23;20184;-83
2022/03/06 07:14:02;;;;;;;9.63;8.70;;;3.10;1.00;;;;;;6125704;23;20208;-83
2022/03/06 07:16:29;;;;;;;10.75;9.23;;;3.10;1.00;;;;;;6125406;23;20199;-84
2022/03/06 07:18:56;;;;;;;10.32;9.40;;;3.00;1.00;;;;;;6132834;23;20199;-83
2022/03/06 07:21:28;;;;;;;10.40;9.50;;;3.10;1.00;;;;;;6132412;23;20270;-83
2022/03/06 07:23:58;;;;;;;10.40;9.50;;;3.10;1.00;;;;;;6128808;23;20301;-83
2022/03/06 07:26:42;;;;;;;9.93;9.02;;;3.20;1.00;;;;;;6131864;23;20184;-85
2022/03/06 07:29:09;;;;;;;10.65;9.65;;;3.30;1.00;;;;;;6124582;23;20214;-84
2022/03/06 07:31:37;;;;;;;12.55;9.93;;;3.30;1.00;;;;;;6128411;23;20932;-83
2022/03/06 07:34:04;;;;;;;11.10;9.98;;;3.30;1.00;;;;;;6127778;23;20206;-85
2022/03/06 07:36:34;;;;;;;11.32;10.05;;;3.30;1.00;;;;;;6127205;23;20192;-83
2022/03/06 07:39:04;;;;;;;10.32;9.32;;;3.40;1.00;;;;;;6126736;23;20203;-84
2022/03/06 07:41:31;;;;;;;12.02;10.85;;;3.40;1.00;;;;;;6125896;23;20188;-83
2022/03/06 07:43:58;;;;;;;12.65;11.35;;;3.40;1.00;;;;;;6125140;23;20204;-84
2022/03/06 07:46:25;;;;;;;11.57;10.57;;;3.40;1.00;;;;;;6130409;23;20249;-83
2022/03/06 07:48:55;;;;;;;11.23;10.00;;;3.40;1.00;;;;;;6132617;23;20294;-83
2022/03/06 07:51:23;;;;;;;12.15;11.05;;;3.50;1.00;;;;;;6130043;23;20200;-82
2022/03/06 07:53:54;;;;;;;12.52;11.32;;;3.40;1.00;;;;;;6129854;23;21184;-84
2022/03/06 07:56:34;;;;;;;11.43;10.43;;;3.40;1.00;;;;;;6133427;23;20254;-82
2022/03/06 07:59:07;;;;;;;12.38;11.27;;;3.40;1.00;;;;;;6123157;23;20183;-83
2022/03/06 08:01:40;;;;;;;12.27;11.18;;;3.30;1.00;;;;;;6143538;23;21227;-82
2022/03/06 08:04:08;;;;;;;13.05;11.70;;;3.30;1.00;;;;;;6139067;23;20223;-83
2022/03/06 08:06:35;;;;;;;13.60;11.68;;;3.30;1.00;;;;;;6137824;23;20234;-85
2022/03/06 08:09:10;;;;;;;12.82;11.63;;;3.30;1.00;;;;;;6144714;23;20184;-84
2022/03/06 08:11:42;;;;;;;15.20;12.75;;;3.30;1.00;;;;;;6106045;23;20196;-84
2022/03/06 08:14:18;;;;;;;11.90;10.73;;;3.40;1.00;;;;;;6131785;23;20211;-84
2022/03/06 08:16:48;;;;;;;12.52;11.32;;;3.40;1.00;;;;;;6130232;23;20190;-85
2022/03/06 08:19:16;;;;;;;11.75;10.75;;;3.50;1.00;;;;;;6131072;23;20203;-79
2022/03/06 08:21:43;;;;;;;13.27;12.07;;;3.50;1.00;;;;;;6116575;23;20192;-79
2022/03/06 08:24:11;;;;;;;12.80;11.60;;;3.50;1.00;;;;;;6115878;23;20302;-78
2022/03/06 08:26:38;;;;;;;13.57;12.30;;;3.60;1.00;;;;;;6114328;23;20203;-78
2022/03/06 08:29:05;;;;;;;14.85;13.45;;;3.60;1.00;;;;;;6115567;23;20259;-78
2022/03/06 08:31:32;;;;;;;13.00;11.68;;;3.60;1.00;;;;;;6124512;23;20188;-80
2022/03/06 08:34:00;;;;;;;12.57;11.38;;;3.70;1.00;;;;;;6124616;23;20196;-80
2022/03/06 08:36:27;;;;;;;15.63;13.25;;;3.60;1.00;;;;;;6124134;23;20196;-81
2022/03/06 08:38:54;;;;;;;12.70;11.45;;;3.70;1.00;;;;;;6124904;23;20729;-81
2022/03/06 08:41:23;;;;;;;12.65;11.43;;;3.60;1.00;;;;;;6122741;23;20223;-81
2022/03/06 08:43:50;;;;;;;11.73;10.55;;;3.60;1.00;;;;;;6126166;23;20581;-81
2022/03/06 08:46:18;;;;;;;12.38;11.18;;;3.60;1.00;;;;;;6122905;23;20196;-82
2022/03/06 08:48:45;;;;;;;12.13;10.90;;;3.60;1.00;;;;;;6126745;23;20204;-82
2022/03/06 08:55:26;;;;;;;13.45;12.13;;;3.60;1.00;;;;;;6120152;23;20307;-82
2022/03/06 08:57:54;;;;;;;11.60;10.40;;;3.50;1.00;;;;;;6122344;23;20890;-81
2022/03/06 09:00:21;;;;;;;11.77;10.43;;;3.60;1.00;;;;;;6122692;23;20917;-85
2022/03/06 09:02:48;;;;;;;11.75;10.55;;;3.70;1.00;;;;;;6116924;23;20230;-79
2022/03/06 09:05:15;;;;;;;11.15;10.05;;;3.80;1.00;;;;;;6118236;23;20215;-81
2022/03/06 09:07:42;;;;;;;10.48;9.40;;;3.80;1.00;;;;;;6118946;23;20191;-81
2022/03/06 09:10:10;;;;;;;12.82;9.35;;;3.80;1.00;;;;;;6121160;23;20228;-84
2022/03/06 09:12:37;;;;;;;11.82;9.00;;;3.80;1.00;;;;;;6120240;23;21462;-82
2022/03/06 09:15:06;;;;;;;9.52;8.73;;;3.90;1.00;;;;;;6121072;23;20247;-80
2022/03/06 09:17:35;;;;;;;9.63;8.73;;;4.00;1.00;;;;;;6121693;23;20255;-81
2022/03/06 09:20:02;;;;;;;9.02;8.23;;;4.10;1.00;;;;;;6122704;23;20195;-80
2022/03/06 09:22:29;;;;;;;9.45;8.48;;;4.20;1.00;;;;;;6121966;23;20192;-80
2022/03/06 09:24:56;;;;;;;9.90;8.93;;;4.20;1.00;;;;;;6117573;23;20211;-78
2022/03/06 09:27:23;;;;;;;9.80;8.95;;;4.20;1.00;;;;;;6121056;23;20247;-79
2022/03/06 09:29:50;;;;;;;13.85;10.23;;;4.20;1.00;;;;;;6125846;23;20192;-81
2022/03/06 09:32:19;;;;;;;9.98;8.80;;;4.30;1.00;;;;;;6128188;23;20195;-81
2022/03/06 09:34:45;;;;;;;12.30;10.30;;;4.30;1.00;;;;;;6131519;23;20204;-80
2022/03/06 09:37:17;;;;;;;8.23;7.43;;;4.40;1.00;;;;;;6125974;23;20259;-81
2022/03/06 09:39:59;;;;;;;10.00;9.13;;;4.50;1.00;;;;;;6150241;23;20211;-81
2022/03/06 09:42:29;;;;;;;9.60;8.65;;;4.60;1.00;;;;;;6145899;23;20183;-82
2022/03/06 09:44:57;;;;;;;9.68;8.85;;;4.70;1.00;;;;;;6136426;23;20203;-78
2022/03/06 09:47:25;;;;;;;8.88;7.97;;;4.80;1.00;;;;;;6128451;23;20191;-80
2022/03/06 09:49:52;;;;;;;9.93;9.02;;;4.90;1.00;;;;;;6127123;23;20191;-79
2022/03/06 09:52:19;;;;;;;10.05;9.05;;;5.00;1.00;;;;;;6128612;23;20196;-79
2022/03/06 09:54:46;;;;;;;8.32;7.53;;;5.10;1.00;;;;;;6131910;23;21359;-78
2022/03/06 09:57:19;;;;;;;13.70;11.82;;;5.20;1.00;;;;;;6130472;23;20204;-78
2022/03/06 09:59:46;;;;;;;9.27;8.25;;;5.30;1.00;;;;;;6122553;23;20628;-79
2022/03/06 10:02:13;;;;;;;8.65;7.85;;;5.40;1.00;;;;;;6153752;23;20263;-76
2022/03/06 10:04:41;;;;;;;8.57;7.50;;;5.10;1.00;;;;;;6153465;23;20196;-75
2022/03/06 10:07:09;;;;;;;10.43;8.88;;;5.00;1.00;;;;;;6134641;23;20204;-77
2022/03/06 10:09:44;;;;;;;8.15;7.35;;;5.10;1.00;;;;;;6121960;23;20184;-78
2022/03/06 10:12:20;;;;;;;8.25;7.55;;;5.10;1.00;;;;;;6118467;23;20187;-74
2022/03/06 10:14:48;;;;;;;9.10;8.20;;;5.10;1.00;;;;;;6120554;23;20195;-75
2022/03/06 10:17:17;;;;;;;7.85;7.25;;;5.20;1.00;;;;;;6118869;23;20302;-76
2022/03/06 10:19:51;;;;;;;8.30;7.50;;;5.20;1.00;;;;;;6118727;23;20920;-77
2022/03/06 10:22:18;;;;;;;8.25;7.55;;;5.30;1.00;;;;;;6123276;23;20190;-80
2022/03/06 10:24:49;;;;;;;8.07;7.38;;;5.30;1.00;;;;;;6128458;23;20235;-77
2022/03/06 10:27:17;;;;;;;8.10;7.50;;;5.20;1.00;;;;;;6128438;23;20223;-78
2022/03/06 10:29:44;;;;;;;9.32;8.43;;;5.20;1.00;;;;;;6142195;23;20184;-79
2022/03/06 10:32:11;;;;;;;8.20;7.57;;;5.30;1.00;;;;;;6135686;23;20272;-80
2022/03/06 10:34:40;;;;;;;9.15;7.82;;;5.40;1.00;;;;;;6132483;23;20200;-78
2022/03/06 10:37:13;;;;;;;8.80;7.88;;;5.30;1.00;;;;;;6127997;23;20199;-79
2022/03/06 10:39:44;;;;;;;7.63;6.95;;;5.40;1.00;;;;;;6146003;23;20252;-77
2022/03/06 10:42:11;;;;;;;8.02;7.22;;;5.50;1.00;;;;;;6152912;23;20208;-77
2022/03/06 10:44:45;;;;;;;14.25;12.30;;;5.60;1.00;;;;;;6143354;23;20220;-78
2022/03/06 10:47:12;;;;;;;7.88;7.18;;;5.70;1.00;;;;;;6126225;23;20251;-78
2022/03/06 10:49:39;;;;;;;9.70;8.23;;;5.80;1.00;;;;;;6124698;23;20204;-78
2022/03/06 10:52:19;;;;;;;10.32;8.15;;;5.90;1.00;;;;;;6124977;23;20199;-80
2022/03/06 10:54:50;;;;;;;8.38;7.57;;;5.90;1.00;;;;;;6124427;23;20275;-79
2022/03/06 10:57:17;;;;;;;8.60;7.80;;;5.90;1.00;;;;;;6125086;23;20215;-80
2022/03/06 10:59:45;;;;;;;8.77;8.02;;;5.80;1.00;;;;;;6124536;23;20283;-78
2022/03/06 11:02:13;;;;;;;8.73;8.02;;;5.80;1.00;;;;;;6126118;23;20273;-78
2022/03/06 11:04:40;;;;;;;10.65;7.93;;;5.80;1.00;;;;;;6122330;23;20200;-82
2022/03/06 11:07:07;;;;;;;8.60;7.90;;;5.80;1.00;;;;;;6122385;23;20271;-84
2022/03/06 11:09:37;;;;;;;9.07;8.23;;;5.80;1.00;;;;;;6122153;23;20192;-82
2022/03/06 11:12:05;;;;;;;8.00;7.30;;;5.80;1.00;;;;;;6122213;23;20244;-84
2022/03/06 11:14:32;;;;;;;8.32;7.75;;;5.80;1.00;;;;;;6128709;23;20282;-82
2022/03/06 11:16:59;;;;;;;9.23;8.32;;;5.80;1.00;;;;;;6133157;23;20188;-82
2022/03/06 11:19:27;;;;;;;7.75;7.05;;;5.80;1.00;;;;;;6130890;23;20259;-82
2022/03/06 11:22:03;;;;;;;9.68;8.10;;;5.80;1.00;;;;;;6121152;23;20196;-80
2022/03/06 11:24:31;;;;;;;8.63;7.70;;;5.90;1.00;;;;;;6125803;23;20206;-83
2022/03/06 11:27:24;;;;;;;10.23;9.43;;;6.10;1.00;;;;;;6123893;23;20212;-83
2022/03/06 11:30:06;;;;;;;7.95;7.35;;;6.10;1.00;;;;;;6079300;23;20689;-79
2022/03/06 11:32:35;;;;;;;11.30;8.80;;;6.20;1.00;;;;;;6125895;23;20192;-80
2022/03/06 11:35:09;;;;;;;9.80;8.93;;;6.20;1.00;;;;;;6118607;23;20204;-79
2022/03/06 11:37:48;;;;;;;8.68;8.07;;;6.20;1.00;;;;;;6120319;23;20278;-80
2022/03/06 11:40:34;;;;;;;8.70;7.90;;;6.40;1.00;;;;;;6120356;23;20708;-80
2022/03/06 11:43:02;;;;;;;8.15;7.55;;;6.40;1.00;;;;;;6124589;23;20217;-82
2022/03/06 11:45:51;;;;;;;7.88;7.18;;;6.50;1.00;;;;;;6125980;23;20215;-83
2022/03/06 11:48:26;;;;;;;8.50;7.90;;;6.40;1.00;;;;;;6124910;23;20721;-81
2022/03/06 11:51:19;;;;;;;8.75;8.05;;;6.50;1.00;;;;;;6126408;23;20202;-82
2022/03/06 11:53:51;;;;;;;8.73;7.97;;;6.60;1.00;;;;;;6125086;23;20195;-81
2022/03/06 11:57:01;;;;;;;8.30;7.70;;;6.60;1.00;;;;;;6130349;23;20183;-82
2022/03/06 11:59:46;;;;;;;8.45;7.75;;;6.70;1.00;;;;;;6136944;23;20178;-83
2022/03/06 12:02:23;;;;;;;8.32;7.63;;;6.80;1.00;;;;;;6122607;23;20356;-82
2022/03/06 12:04:55;;;;;;;8.52;7.78;;;6.90;1.00;;;;;;6125488;23;20189;-83
2022/03/06 12:07:26;;;;;;;8.90;8.20;;;7.00;1.00;;;;;;6121197;23;20339;-83
2022/03/06 12:09:55;;;;;;;7.95;7.18;;;7.30;1.00;;;;;;6126219;23;20279;-84
2022/03/06 12:12:23;;;;;;;9.23;7.50;;;7.30;1.00;;;;;;6130871;23;20195;-84
2022/03/06 12:14:53;;;;;;;11.05;9.95;;;7.20;1.00;;;;;;6127919;23;20224;-83
2022/03/06 12:17:44;;;;;;;8.90;8.00;;;7.00;1.00;;;;;;6126630;23;20214;-83
2022/03/06 12:20:26;;;;;;;7.70;7.00;;;7.10;1.00;;;;;;6130186;23;20247;-83
2022/03/06 12:22:57;;;;;;;7.50;6.80;;;6.90;1.00;;;;;;6125443;23;20755;-82
2022/03/06 12:25:29;;;;;;;5.80;5.30;;;6.90;1.00;;;;;;6130166;23;20391;-81
2022/03/06 12:28:16;;;;;;;7.05;5.47;;;6.90;1.00;;;;;;6121992;23;20655;-81
2022/03/06 12:30:45;;;;;;;5.38;4.88;;;6.80;1.00;;;;;;6123661;23;20298;-80
2022/03/06 12:33:35;;;;;;;5.72;5.25;;;6.70;1.00;;;;;;6126903;23;20206;-81
2022/03/06 12:36:14;;;;;;;5.20;4.70;;;6.70;1.00;;;;;;6132994;23;20235;-80
2022/03/06 12:38:42;;;;;;;7.75;4.70;;;6.60;1.00;;;;;;6134064;23;20196;-80
2022/03/06 12:41:09;;;;;;;5.30;4.30;;;6.60;1.00;;;;;;6128496;23;20211;-80
2022/03/06 12:43:47;;;;;;;4.95;3.72;;;6.50;1.00;;;;;;6125766;23;20697;-81
2022/03/06 12:46:18;;;;;;;4.15;3.67;;;6.50;1.00;;;;;;6125454;23;20199;-81
2022/03/06 12:48:49;;;;;;;3.70;3.20;;;6.30;1.00;;;;;;6125621;23;20646;-81
2022/03/06 12:51:39;;;;;;;4.30;2.75;;;6.40;1.00;;;;;;6125235;23;20207;-79
2022/03/06 12:54:17;;;;;;;3.90;2.90;;;6.50;1.00;;;;;;6133093;23;20262;-81
2022/03/06 12:56:44;;;;;;;5.75;3.22;;;6.50;1.00;;;;;;6122634;23;21278;-81
2022/03/06 12:59:20;;;;;;;5.30;3.05;;;6.40;1.00;;;;;;6132335;23;20184;-83
2022/03/06 13:01:52;;;;;;;3.30;2.78;;;6.40;1.00;;;;;;6144762;23;20184;-84
2022/03/06 13:04:24;;;;;;;3.30;2.80;;;6.20;1.00;;;;;;6098646;23;20272;-86
2022/03/06 13:06:56;;;;;;;4.22;2.80;;;6.20;1.00;;;;;;6139912;23;20289;-86
2022/03/06 13:09:27;;;;;;;3.67;2.80;;;6.10;1.00;;;;;;6133440;23;20212;-83
2022/03/06 13:11:56;;;;;;;3.55;2.60;;;6.10;1.00;;;;;;6128005;23;20188;-86
2022/03/06 13:14:36;;;;;;;6.40;3.97;;;6.10;1.00;;;;;;6125204;23;20234;-84
2022/03/06 13:17:09;;;;;;;4.13;3.50;;;6.10;1.00;;;;;;6128705;23;20184;-79
2022/03/06 13:19:45;;;;;;;5.70;5.07;;;5.90;1.00;;;;;;6126133;23;20184;-86